sensor_id;sensor_type;location;lat;lon;timestamp;P1;durP1;ratioP1;P2;durP2;ratioP2
67156;SDS011;54086;50.126;8.710;2023-10-09T00:01:02;7.53;;;2.83;;
67156;SDS011;54086;50.126;8.710;2023-10-09T00:03:45;9.98;;;2.92;;
67156;SDS011;54086;50.126;8.710;2023-10-09T00:06:17;8.43;;;3.20;;
67156;SDS011;54086;50.126;8.710;2023-10-09T00:08:48;9.00;;;2.85;;
67156;SDS011;54086;50.126;8.710;2023-10-09T00:11:20;9.32;;;3.30;;
67156;SDS011;54086;50.126;8.710;2023-10-09T00:13:46;10.57;;;3.13;;
67156;SDS011;54086;50.126;8.710;2023-10-09T00:16:22;7.63;;;2.90;;
67156;SDS011;54086;50.126;8.710;2023-10-09T00:18:59;11.35;;;4.05;;
67156;SDS011;54086;50.126;8.710;2023-10-09T00:21:55;8.38;;;3.13;;
67156;SDS011;54086;50.126;8.710;2023-10-09T00:24:21;8.07;;;2.97;;
67156;SDS011;54086;50.126;8.710;2023-10-09T00:26:50;7.95;;;2.60;;
67156;SDS011;54086;50.126;8.710;2023-10-09T00:29:17;6.38;;;2.70;;
67156;SDS011;54086;50.126;8.710;2023-10-09T00:31:51;10.25;;;3.33;;
67156;SDS011;54086;50.126;8.710;2023-10-09T00:34:28;16.07;;;3.60;;
67156;SDS011;54086;50.126;8.710;2023-10-09T00:36:54;9.02;;;3.15;;
67156;SDS011;54086;50.126;8.710;2023-10-09T00:39:20;8.95;;;3.55;;
67156;SDS011;54086;50.126;8.710;2023-10-09T00:42:10;7.70;;;2.80;;
67156;SDS011;54086;50.126;8.710;2023-10-09T00:44:40;9.52;;;3.30;;
67156;SDS011;54086;50.126;8.710;2023-10-09T00:47:07;9.27;;;3.27;;
67156;SDS011;54086;50.126;8.710;2023-10-09T00:49:50;9.13;;;3.20;;
67156;SDS011;54086;50.126;8.710;2023-10-09T00:52:32;12.25;;;4.00;;
67156;SDS011;54086;50.126;8.710;2023-10-09T00:55:08;9.32;;;3.20;;
67156;SDS011;54086;50.126;8.710;2023-10-09T00:57:39;9.32;;;3.08;;
67156;SDS011;54086;50.126;8.710;2023-10-09T01:00:21;9.60;;;4.00;;
67156;SDS011;54086;50.126;8.710;2023-10-09T01:03:05;9.05;;;3.40;;
67156;SDS011;54086;50.126;8.710;2023-10-09T01:08:14;9.98;;;3.92;;
67156;SDS011;54086;50.126;8.710;2023-10-09T01:10:50;10.30;;;3.90;;
67156;SDS011;54086;50.126;8.710;2023-10-09T01:13:16;7.40;;;2.90;;
67156;SDS011;54086;50.126;8.710;2023-10-09T01:15:43;12.15;;;4.03;;
67156;SDS011;54086;50.126;8.710;2023-10-09T01:18:09;10.68;;;3.92;;
67156;SDS011;54086;50.126;8.710;2023-10-09T01:20:35;11.60;;;4.07;;
67156;SDS011;54086;50.126;8.710;2023-10-09T01:23:07;16.52;;;4.10;;
67156;SDS011;54086;50.126;8.710;2023-10-09T01:25:34;11.23;;;3.95;;
67156;SDS011;54086;50.126;8.710;2023-10-09T01:28:08;8.43;;;3.70;;
67156;SDS011;54086;50.126;8.710;2023-10-09T01:30:34;9.73;;;3.73;;
67156;SDS011;54086;50.126;8.710;2023-10-09T01:32:59;9.47;;;3.67;;
67156;SDS011;54086;50.126;8.710;2023-10-09T01:35:37;10.02;;;3.67;;
67156;SDS011;54086;50.126;8.710;2023-10-09T01:38:12;9.75;;;3.05;;
67156;SDS011;54086;50.126;8.710;2023-10-09T01:40:39;10.85;;;3.85;;
67156;SDS011;54086;50.126;8.710;2023-10-09T01:43:05;16.57;;;3.60;;
67156;SDS011;54086;50.126;8.710;2023-10-09T01:45:34;9.00;;;3.65;;
67156;SDS011;54086;50.126;8.710;2023-10-09T01:48:07;11.77;;;3.30;;
67156;SDS011;54086;50.126;8.710;2023-10-09T01:50:33;8.15;;;3.00;;
67156;SDS011;54086;50.126;8.710;2023-10-09T01:53:03;10.63;;;3.30;;
67156;SDS011;54086;50.126;8.710;2023-10-09T01:55:31;10.95;;;3.85;;
67156;SDS011;54086;50.126;8.710;2023-10-09T01:58:06;11.52;;;4.13;;
67156;SDS011;54086;50.126;8.710;2023-10-09T02:00:49;9.73;;;3.80;;
67156;SDS011;54086;50.126;8.710;2023-10-09T02:03:27;9.57;;;4.13;;
67156;SDS011;54086;50.126;8.710;2023-10-09T02:05:54;12.57;;;4.38;;
67156;SDS011;54086;50.126;8.710;2023-10-09T02:08:28;10.23;;;4.03;;
67156;SDS011;54086;50.126;8.710;2023-10-09T02:11:01;10.77;;;4.18;;
67156;SDS011;54086;50.126;8.710;2023-10-09T02:13:28;12.43;;;4.00;;
67156;SDS011;54086;50.126;8.710;2023-10-09T02:15:59;10.32;;;4.43;;
67156;SDS011;54086;50.126;8.710;2023-10-09T02:18:40;10.00;;;4.03;;
67156;SDS011;54086;50.126;8.710;2023-10-09T02:21:24;12.32;;;4.95;;
67156;SDS011;54086;50.126;8.710;2023-10-09T02:24:00;13.50;;;5.07;;
67156;SDS011;54086;50.126;8.710;2023-10-09T02:26:34;11.77;;;4.60;;
67156;SDS011;54086;50.126;8.710;2023-10-09T02:29:25;12.60;;;4.95;;
67156;SDS011;54086;50.126;8.710;2023-10-09T02:31:51;10.60;;;4.78;;
67156;SDS011;54086;50.126;8.710;2023-10-09T02:34:17;10.93;;;4.65;;
67156;SDS011;54086;50.126;8.710;2023-10-09T02:36:52;12.43;;;5.30;;
67156;SDS011;54086;50.126;8.710;2023-10-09T02:39:30;11.77;;;5.40;;
67156;SDS011;54086;50.126;8.710;2023-10-09T02:42:01;11.38;;;4.75;;
67156;SDS011;54086;50.126;8.710;2023-10-09T02:44:33;12.20;;;4.90;;
67156;SDS011;54086;50.126;8.710;2023-10-09T02:47:04;11.88;;;5.05;;
67156;SDS011;54086;50.126;8.710;2023-10-09T02:49:37;11.75;;;4.97;;
67156;SDS011;54086;50.126;8.710;2023-10-09T02:52:04;10.50;;;4.57;;
67156;SDS011;54086;50.126;8.710;2023-10-09T02:54:32;13.85;;;4.32;;
67156;SDS011;54086;50.126;8.710;2023-10-09T02:57:01;9.65;;;4.63;;
67156;SDS011;54086;50.126;8.710;2023-10-09T02:59:35;11.15;;;4.50;;
67156;SDS011;54086;50.126;8.710;2023-10-09T03:02:06;11.23;;;4.60;;
67156;SDS011;54086;50.126;8.710;2023-10-09T03:04:32;11.73;;;4.83;;
67156;SDS011;54086;50.126;8.710;2023-10-09T03:06:58;13.43;;;6.22;;
67156;SDS011;54086;50.126;8.710;2023-10-09T03:09:23;13.70;;;5.50;;
67156;SDS011;54086;50.126;8.710;2023-10-09T03:11:53;12.80;;;5.50;;
67156;SDS011;54086;50.126;8.710;2023-10-09T03:14:27;13.93;;;5.53;;
67156;SDS011;54086;50.126;8.710;2023-10-09T03:16:53;11.52;;;5.53;;
67156;SDS011;54086;50.126;8.710;2023-10-09T03:19:19;12.40;;;5.37;;
67156;SDS011;54086;50.126;8.710;2023-10-09T03:21:44;14.10;;;5.40;;
67156;SDS011;54086;50.126;8.710;2023-10-09T03:24:11;12.30;;;5.50;;
67156;SDS011;54086;50.126;8.710;2023-10-09T03:26:37;15.73;;;5.63;;
67156;SDS011;54086;50.126;8.710;2023-10-09T03:29:03;16.77;;;5.90;;
67156;SDS011;54086;50.126;8.710;2023-10-09T03:31:34;15.07;;;5.95;;
67156;SDS011;54086;50.126;8.710;2023-10-09T03:34:01;17.50;;;6.50;;
67156;SDS011;54086;50.126;8.710;2023-10-09T03:36:27;13.10;;;5.43;;
67156;SDS011;54086;50.126;8.710;2023-10-09T03:38:54;12.23;;;5.20;;
67156;SDS011;54086;50.126;8.710;2023-10-09T03:41:20;13.38;;;5.38;;
67156;SDS011;54086;50.126;8.710;2023-10-09T03:43:46;13.85;;;5.68;;
67156;SDS011;54086;50.126;8.710;2023-10-09T03:46:12;14.20;;;5.53;;
67156;SDS011;54086;50.126;8.710;2023-10-09T03:48:51;14.82;;;5.10;;
67156;SDS011;54086;50.126;8.710;2023-10-09T03:51:17;11.77;;;4.80;;
67156;SDS011;54086;50.126;8.710;2023-10-09T03:53:50;13.23;;;5.43;;
67156;SDS011;54086;50.126;8.710;2023-10-09T03:56:17;12.05;;;5.60;;
67156;SDS011;54086;50.126;8.710;2023-10-09T03:58:44;12.13;;;5.20;;
67156;SDS011;54086;50.126;8.710;2023-10-09T04:01:15;12.00;;;5.45;;
67156;SDS011;54086;50.126;8.710;2023-10-09T04:03:50;12.68;;;5.43;;
67156;SDS011;54086;50.126;8.710;2023-10-09T04:06:28;12.30;;;5.63;;
67156;SDS011;54086;50.126;8.710;2023-10-09T04:08:58;15.52;;;6.43;;
67156;SDS011;54086;50.126;8.710;2023-10-09T04:14:22;13.77;;;5.80;;
67156;SDS011;54086;50.126;8.710;2023-10-09T04:16:57;10.98;;;5.57;;
67156;SDS011;54086;50.126;8.710;2023-10-09T04:19:42;12.38;;;5.60;;
67156;SDS011;54086;50.126;8.710;2023-10-09T04:22:16;13.10;;;5.82;;
67156;SDS011;54086;50.126;8.710;2023-10-09T04:24:56;13.87;;;5.90;;
67156;SDS011;54086;50.126;8.710;2023-10-09T04:27:22;14.65;;;6.20;;
67156;SDS011;54086;50.126;8.710;2023-10-09T04:29:52;13.10;;;5.47;;
67156;SDS011;54086;50.126;8.710;2023-10-09T04:32:19;13.07;;;5.65;;
67156;SDS011;54086;50.126;8.710;2023-10-09T04:34:45;15.27;;;5.57;;
67156;SDS011;54086;50.126;8.710;2023-10-09T04:37:36;14.07;;;5.72;;
67156;SDS011;54086;50.126;8.710;2023-10-09T04:40:04;12.27;;;5.30;;
67156;SDS011;54086;50.126;8.710;2023-10-09T04:42:52;13.55;;;4.82;;
67156;SDS011;54086;50.126;8.710;2023-10-09T04:45:23;12.07;;;5.50;;
67156;SDS011;54086;50.126;8.710;2023-10-09T04:48:07;13.77;;;5.30;;
67156;SDS011;54086;50.126;8.710;2023-10-09T04:50:34;14.35;;;5.53;;
67156;SDS011;54086;50.126;8.710;2023-10-09T04:52:59;12.37;;;6.00;;
67156;SDS011;54086;50.126;8.710;2023-10-09T04:55:47;14.18;;;5.75;;
67156;SDS011;54086;50.126;8.710;2023-10-09T04:58:22;11.65;;;5.22;;
67156;SDS011;54086;50.126;8.710;2023-10-09T05:00:49;14.52;;;5.53;;
67156;SDS011;54086;50.126;8.710;2023-10-09T05:03:24;11.05;;;5.07;;
67156;SDS011;54086;50.126;8.710;2023-10-09T05:06:08;12.57;;;5.90;;
67156;SDS011;54086;50.126;8.710;2023-10-09T05:08:49;12.30;;;5.25;;
67156;SDS011;54086;50.126;8.710;2023-10-09T05:11:18;15.52;;;6.45;;
67156;SDS011;54086;50.126;8.710;2023-10-09T05:14:02;13.88;;;5.10;;
67156;SDS011;54086;50.126;8.710;2023-10-09T05:16:37;14.20;;;5.35;;
67156;SDS011;54086;50.126;8.710;2023-10-09T05:19:13;13.47;;;5.80;;
67156;SDS011;54086;50.126;8.710;2023-10-09T05:21:58;13.70;;;5.70;;
67156;SDS011;54086;50.126;8.710;2023-10-09T05:24:29;15.52;;;6.28;;
67156;SDS011;54086;50.126;8.710;2023-10-09T05:27:07;13.70;;;5.53;;
67156;SDS011;54086;50.126;8.710;2023-10-09T05:29:49;12.90;;;5.97;;
67156;SDS011;54086;50.126;8.710;2023-10-09T05:32:46;13.23;;;5.87;;
67156;SDS011;54086;50.126;8.710;2023-10-09T05:35:13;12.43;;;5.30;;
67156;SDS011;54086;50.126;8.710;2023-10-09T05:37:42;13.18;;;4.90;;
67156;SDS011;54086;50.126;8.710;2023-10-09T05:40:11;15.02;;;4.97;;
67156;SDS011;54086;50.126;8.710;2023-10-09T05:42:44;17.15;;;5.43;;
67156;SDS011;54086;50.126;8.710;2023-10-09T05:45:14;13.23;;;5.20;;
67156;SDS011;54086;50.126;8.710;2023-10-09T05:50:21;12.30;;;4.82;;
67156;SDS011;54086;50.126;8.710;2023-10-09T05:52:47;15.07;;;5.53;;
67156;SDS011;54086;50.126;8.710;2023-10-09T05:55:16;13.38;;;5.40;;
67156;SDS011;54086;50.126;8.710;2023-10-09T05:58:00;13.80;;;4.90;;
67156;SDS011;54086;50.126;8.710;2023-10-09T06:00:44;13.25;;;5.60;;
67156;SDS011;54086;50.126;8.710;2023-10-09T06:03:28;15.52;;;5.43;;
67156;SDS011;54086;50.126;8.710;2023-10-09T06:06:12;14.05;;;4.97;;
67156;SDS011;54086;50.126;8.710;2023-10-09T06:08:58;15.70;;;6.75;;
67156;SDS011;54086;50.126;8.710;2023-10-09T06:11:35;16.53;;;5.03;;
67156;SDS011;54086;50.126;8.710;2023-10-09T06:14:03;13.02;;;5.18;;
67156;SDS011;54086;50.126;8.710;2023-10-09T06:16:29;13.47;;;4.83;;
67156;SDS011;54086;50.126;8.710;2023-10-09T06:19:09;12.45;;;4.95;;
67156;SDS011;54086;50.126;8.710;2023-10-09T06:21:45;17.13;;;5.13;;
67156;SDS011;54086;50.126;8.710;2023-10-09T06:24:17;11.32;;;4.45;;
67156;SDS011;54086;50.126;8.710;2023-10-09T06:26:48;12.32;;;4.70;;
67156;SDS011;54086;50.126;8.710;2023-10-09T06:29:23;14.13;;;4.53;;
67156;SDS011;54086;50.126;8.710;2023-10-09T06:32:03;11.68;;;4.63;;
67156;SDS011;54086;50.126;8.710;2023-10-09T06:34:49;18.08;;;4.95;;
67156;SDS011;54086;50.126;8.710;2023-10-09T06:37:22;13.05;;;4.70;;
67156;SDS011;54086;50.126;8.710;2023-10-09T06:39:48;11.73;;;4.78;;
67156;SDS011;54086;50.126;8.710;2023-10-09T06:45:04;12.85;;;4.53;;
67156;SDS011;54086;50.126;8.710;2023-10-09T06:47:50;13.15;;;4.72;;
67156;SDS011;54086;50.126;8.710;2023-10-09T06:50:34;13.57;;;4.53;;
67156;SDS011;54086;50.126;8.710;2023-10-09T06:53:18;12.70;;;4.80;;
67156;SDS011;54086;50.126;8.710;2023-10-09T06:55:50;14.00;;;5.33;;
67156;SDS011;54086;50.126;8.710;2023-10-09T06:58:30;12.52;;;4.75;;
67156;SDS011;54086;50.126;8.710;2023-10-09T07:01:06;18.92;;;5.45;;
67156;SDS011;54086;50.126;8.710;2023-10-09T07:03:45;14.32;;;5.10;;
67156;SDS011;54086;50.126;8.710;2023-10-09T07:06:19;12.52;;;4.97;;
67156;SDS011;54086;50.126;8.710;2023-10-09T07:08:52;17.63;;;4.70;;
67156;SDS011;54086;50.126;8.710;2023-10-09T07:11:38;20.08;;;5.35;;
67156;SDS011;54086;50.126;8.710;2023-10-09T07:16:37;17.98;;;5.18;;
67156;SDS011;54086;50.126;8.710;2023-10-09T07:19:22;13.15;;;5.15;;
67156;SDS011;54086;50.126;8.710;2023-10-09T07:22:11;12.20;;;4.30;;
67156;SDS011;54086;50.126;8.710;2023-10-09T07:24:53;12.27;;;4.30;;
67156;SDS011;54086;50.126;8.710;2023-10-09T07:27:25;14.02;;;5.40;;
67156;SDS011;54086;50.126;8.710;2023-10-09T07:30:12;16.27;;;4.88;;
67156;SDS011;54086;50.126;8.710;2023-10-09T07:32:57;15.45;;;4.55;;
67156;SDS011;54086;50.126;8.710;2023-10-09T07:35:45;14.83;;;4.83;;
67156;SDS011;54086;50.126;8.710;2023-10-09T07:40:44;12.63;;;4.22;;
67156;SDS011;54086;50.126;8.710;2023-10-09T07:43:20;14.60;;;4.93;;
67156;SDS011;54086;50.126;8.710;2023-10-09T07:45:51;12.15;;;4.38;;
67156;SDS011;54086;50.126;8.710;2023-10-09T07:48:23;14.03;;;4.87;;
67156;SDS011;54086;50.126;8.710;2023-10-09T07:51:04;16.30;;;4.72;;
67156;SDS011;54086;50.126;8.710;2023-10-09T07:53:36;14.48;;;5.10;;
67156;SDS011;54086;50.126;8.710;2023-10-09T07:56:08;12.07;;;4.25;;
67156;SDS011;54086;50.126;8.710;2023-10-09T07:58:34;14.50;;;4.80;;
67156;SDS011;54086;50.126;8.710;2023-10-09T08:01:11;13.50;;;4.10;;
67156;SDS011;54086;50.126;8.710;2023-10-09T08:03:39;13.10;;;5.03;;
67156;SDS011;54086;50.126;8.710;2023-10-09T08:06:05;16.10;;;4.30;;
67156;SDS011;54086;50.126;8.710;2023-10-09T08:08:54;10.63;;;3.78;;
67156;SDS011;54086;50.126;8.710;2023-10-09T08:11:37;16.05;;;4.18;;
67156;SDS011;54086;50.126;8.710;2023-10-09T08:14:07;13.33;;;4.30;;
67156;SDS011;54086;50.126;8.710;2023-10-09T08:16:47;14.00;;;4.88;;
67156;SDS011;54086;50.126;8.710;2023-10-09T08:19:31;11.30;;;4.55;;
67156;SDS011;54086;50.126;8.710;2023-10-09T08:21:59;11.73;;;4.22;;
67156;SDS011;54086;50.126;8.710;2023-10-09T08:24:44;10.93;;;4.50;;
67156;SDS011;54086;50.126;8.710;2023-10-09T08:27:17;14.63;;;4.40;;
67156;SDS011;54086;50.126;8.710;2023-10-09T08:29:55;14.00;;;4.00;;
67156;SDS011;54086;50.126;8.710;2023-10-09T08:32:39;10.73;;;4.20;;
67156;SDS011;54086;50.126;8.710;2023-10-09T08:35:07;11.63;;;3.70;;
67156;SDS011;54086;50.126;8.710;2023-10-09T08:38:05;12.48;;;4.15;;
67156;SDS011;54086;50.126;8.710;2023-10-09T08:40:40;12.30;;;4.00;;
67156;SDS011;54086;50.126;8.710;2023-10-09T08:43:08;16.45;;;4.38;;
67156;SDS011;54086;50.126;8.710;2023-10-09T08:45:38;14.23;;;4.00;;
67156;SDS011;54086;50.126;8.710;2023-10-09T08:48:08;15.02;;;5.03;;
67156;SDS011;54086;50.126;8.710;2023-10-09T08:50:40;15.20;;;4.18;;
67156;SDS011;54086;50.126;8.710;2023-10-09T08:53:07;14.63;;;4.20;;
67156;SDS011;54086;50.126;8.710;2023-10-09T08:55:35;11.43;;;3.85;;
67156;SDS011;54086;50.126;8.710;2023-10-09T08:58:03;13.27;;;4.90;;
67156;SDS011;54086;50.126;8.710;2023-10-09T09:00:35;13.88;;;4.47;;
67156;SDS011;54086;50.126;8.710;2023-10-09T09:03:03;14.48;;;4.75;;
67156;SDS011;54086;50.126;8.710;2023-10-09T09:05:30;15.80;;;4.60;;
67156;SDS011;54086;50.126;8.710;2023-10-09T09:07:55;14.60;;;4.05;;
67156;SDS011;54086;50.126;8.710;2023-10-09T09:10:30;14.25;;;4.97;;
67156;SDS011;54086;50.126;8.710;2023-10-09T09:13:04;13.27;;;4.37;;
67156;SDS011;54086;50.126;8.710;2023-10-09T09:15:31;12.88;;;5.20;;
67156;SDS011;54086;50.126;8.710;2023-10-09T09:18:07;16.08;;;4.53;;
67156;SDS011;54086;50.126;8.710;2023-10-09T09:20:36;18.42;;;4.50;;
67156;SDS011;54086;50.126;8.710;2023-10-09T09:23:05;10.23;;;4.07;;
67156;SDS011;54086;50.126;8.710;2023-10-09T09:25:46;13.83;;;4.93;;
67156;SDS011;54086;50.126;8.710;2023-10-09T09:28:24;15.75;;;4.93;;
67156;SDS011;54086;50.126;8.710;2023-10-09T09:30:52;15.48;;;4.32;;
67156;SDS011;54086;50.126;8.710;2023-10-09T09:33:23;14.23;;;4.72;;
67156;SDS011;54086;50.126;8.710;2023-10-09T09:35:56;15.35;;;7.18;;
67156;SDS011;54086;50.126;8.710;2023-10-09T09:38:27;19.60;;;5.70;;
67156;SDS011;54086;50.126;8.710;2023-10-09T09:40:57;15.20;;;5.32;;
67156;SDS011;54086;50.126;8.710;2023-10-09T09:43:27;14.13;;;4.93;;
67156;SDS011;54086;50.126;8.710;2023-10-09T09:45:55;15.27;;;5.25;;
67156;SDS011;54086;50.126;8.710;2023-10-09T09:48:21;13.48;;;4.55;;
67156;SDS011;54086;50.126;8.710;2023-10-09T09:50:52;13.43;;;5.13;;
67156;SDS011;54086;50.126;8.710;2023-10-09T09:53:19;14.30;;;4.78;;
67156;SDS011;54086;50.126;8.710;2023-10-09T09:55:51;12.57;;;4.80;;
67156;SDS011;54086;50.126;8.710;2023-10-09T09:58:22;16.25;;;5.30;;
67156;SDS011;54086;50.126;8.710;2023-10-09T10:01:09;13.15;;;5.68;;
67156;SDS011;54086;50.126;8.710;2023-10-09T10:03:50;14.83;;;5.60;;
67156;SDS011;54086;50.126;8.710;2023-10-09T10:06:22;15.07;;;5.28;;
67156;SDS011;54086;50.126;8.710;2023-10-09T10:08:51;16.55;;;5.68;;
67156;SDS011;54086;50.126;8.710;2023-10-09T10:14:09;15.55;;;4.45;;
67156;SDS011;54086;50.126;8.710;2023-10-09T10:22:46;13.30;;;5.43;;
67156;SDS011;54086;50.126;8.710;2023-10-09T10:28:16;13.73;;;5.35;;
67156;SDS011;54086;50.126;8.710;2023-10-09T10:31:06;18.10;;;5.57;;
67156;SDS011;54086;50.126;8.710;2023-10-09T10:36:21;16.23;;;4.88;;
67156;SDS011;54086;50.126;8.710;2023-10-09T10:39:08;17.83;;;5.32;;
67156;SDS011;54086;50.126;8.710;2023-10-09T10:41:57;12.02;;;4.32;;
67156;SDS011;54086;50.126;8.710;2023-10-09T10:44:29;11.80;;;4.17;;
67156;SDS011;54086;50.126;8.710;2023-10-09T10:46:59;15.02;;;4.97;;
67156;SDS011;54086;50.126;8.710;2023-10-09T10:49:26;19.15;;;7.00;;
67156;SDS011;54086;50.126;8.710;2023-10-09T10:52:01;16.25;;;5.60;;
67156;SDS011;54086;50.126;8.710;2023-10-09T10:54:44;13.68;;;5.55;;
67156;SDS011;54086;50.126;8.710;2023-10-09T10:57:19;15.10;;;4.83;;
67156;SDS011;54086;50.126;8.710;2023-10-09T10:59:55;12.38;;;5.03;;
67156;SDS011;54086;50.126;8.710;2023-10-09T11:02:30;11.67;;;4.23;;
67156;SDS011;54086;50.126;8.710;2023-10-09T11:04:56;13.88;;;4.25;;
67156;SDS011;54086;50.126;8.710;2023-10-09T11:07:39;12.82;;;4.40;;
67156;SDS011;54086;50.126;8.710;2023-10-09T11:10:06;13.25;;;4.50;;
67156;SDS011;54086;50.126;8.710;2023-10-09T11:15:06;12.57;;;4.17;;
67156;SDS011;54086;50.126;8.710;2023-10-09T11:17:36;11.98;;;4.47;;
67156;SDS011;54086;50.126;8.710;2023-10-09T11:20:04;14.15;;;4.38;;
67156;SDS011;54086;50.126;8.710;2023-10-09T11:22:51;10.63;;;4.30;;
67156;SDS011;54086;50.126;8.710;2023-10-09T11:25:32;12.23;;;4.43;;
67156;SDS011;54086;50.126;8.710;2023-10-09T11:27:59;16.90;;;4.37;;
67156;SDS011;54086;50.126;8.710;2023-10-09T11:30:40;13.45;;;5.47;;
67156;SDS011;54086;50.126;8.710;2023-10-09T11:33:10;16.23;;;5.43;;
67156;SDS011;54086;50.126;8.710;2023-10-09T11:35:40;11.60;;;4.63;;
67156;SDS011;54086;50.126;8.710;2023-10-09T11:38:08;12.85;;;4.47;;
67156;SDS011;54086;50.126;8.710;2023-10-09T11:40:46;13.47;;;4.20;;
67156;SDS011;54086;50.126;8.710;2023-10-09T11:43:44;11.18;;;3.78;;
67156;SDS011;54086;50.126;8.710;2023-10-09T11:46:17;12.82;;;4.22;;
67156;SDS011;54086;50.126;8.710;2023-10-09T11:49:11;11.85;;;4.00;;
67156;SDS011;54086;50.126;8.710;2023-10-09T11:52:06;10.95;;;4.63;;
67156;SDS011;54086;50.126;8.710;2023-10-09T11:54:35;12.77;;;3.77;;
67156;SDS011;54086;50.126;8.710;2023-10-09T11:57:01;9.35;;;3.78;;
67156;SDS011;54086;50.126;8.710;2023-10-09T11:59:29;9.97;;;4.37;;
67156;SDS011;54086;50.126;8.710;2023-10-09T12:02:17;13.40;;;4.03;;
67156;SDS011;54086;50.126;8.710;2023-10-09T12:04:43;12.93;;;4.32;;
67156;SDS011;54086;50.126;8.710;2023-10-09T12:07:08;13.55;;;4.72;;
67156;SDS011;54086;50.126;8.710;2023-10-09T12:09:38;12.03;;;4.07;;
67156;SDS011;54086;50.126;8.710;2023-10-09T12:12:05;11.02;;;3.78;;
67156;SDS011;54086;50.126;8.710;2023-10-09T12:14:32;16.13;;;5.45;;
67156;SDS011;54086;50.126;8.710;2023-10-09T12:17:01;13.20;;;4.20;;
67156;SDS011;54086;50.126;8.710;2023-10-09T12:21:58;12.33;;;4.50;;
67156;SDS011;54086;50.126;8.710;2023-10-09T12:24:29;11.82;;;4.72;;
67156;SDS011;54086;50.126;8.710;2023-10-09T12:26:55;14.73;;;4.70;;
67156;SDS011;54086;50.126;8.710;2023-10-09T12:29:21;14.65;;;5.55;;
67156;SDS011;54086;50.126;8.710;2023-10-09T12:31:48;15.88;;;5.10;;
67156;SDS011;54086;50.126;8.710;2023-10-09T12:34:23;15.73;;;4.93;;
67156;SDS011;54086;50.126;8.710;2023-10-09T12:36:58;11.05;;;4.38;;
67156;SDS011;54086;50.126;8.710;2023-10-09T12:39:27;13.80;;;4.60;;
67156;SDS011;54086;50.126;8.710;2023-10-09T12:41:58;11.23;;;4.07;;
67156;SDS011;54086;50.126;8.710;2023-10-09T12:44:33;20.08;;;5.20;;
67156;SDS011;54086;50.126;8.710;2023-10-09T12:47:07;11.67;;;4.20;;
67156;SDS011;54086;50.126;8.710;2023-10-09T12:49:36;11.15;;;3.83;;
67156;SDS011;54086;50.126;8.710;2023-10-09T12:52:06;10.02;;;3.63;;
67156;SDS011;54086;50.126;8.710;2023-10-09T12:54:44;13.63;;;3.80;;
67156;SDS011;54086;50.126;8.710;2023-10-09T12:57:13;11.30;;;4.55;;
67156;SDS011;54086;50.126;8.710;2023-10-09T12:59:42;12.03;;;4.10;;
67156;SDS011;54086;50.126;8.710;2023-10-09T13:02:11;9.43;;;3.53;;
67156;SDS011;54086;50.126;8.710;2023-10-09T13:04:38;11.82;;;4.00;;
67156;SDS011;54086;50.126;8.710;2023-10-09T13:07:07;12.45;;;4.40;;
67156;SDS011;54086;50.126;8.710;2023-10-09T13:09:33;12.25;;;4.70;;
67156;SDS011;54086;50.126;8.710;2023-10-09T13:12:07;12.37;;;3.97;;
67156;SDS011;54086;50.126;8.710;2023-10-09T13:14:43;12.15;;;4.70;;
67156;SDS011;54086;50.126;8.710;2023-10-09T13:17:08;11.07;;;3.92;;
67156;SDS011;54086;50.126;8.710;2023-10-09T13:19:34;12.93;;;3.70;;
67156;SDS011;54086;50.126;8.710;2023-10-09T13:22:00;12.43;;;4.45;;
67156;SDS011;54086;50.126;8.710;2023-10-09T13:24:28;12.60;;;4.38;;
67156;SDS011;54086;50.126;8.710;2023-10-09T13:26:55;12.03;;;4.13;;
67156;SDS011;54086;50.126;8.710;2023-10-09T13:29:23;11.25;;;4.65;;
67156;SDS011;54086;50.126;8.710;2023-10-09T13:31:49;13.20;;;4.50;;
67156;SDS011;54086;50.126;8.710;2023-10-09T13:34:17;13.53;;;4.90;;
67156;SDS011;54086;50.126;8.710;2023-10-09T13:36:43;12.48;;;4.53;;
67156;SDS011;54086;50.126;8.710;2023-10-09T13:39:18;13.70;;;5.20;;
67156;SDS011;54086;50.126;8.710;2023-10-09T13:41:56;10.83;;;3.37;;
67156;SDS011;54086;50.126;8.710;2023-10-09T13:44:29;23.65;;;4.75;;
67156;SDS011;54086;50.126;8.710;2023-10-09T13:47:02;12.38;;;4.38;;
67156;SDS011;54086;50.126;8.710;2023-10-09T13:49:33;11.15;;;3.83;;
67156;SDS011;54086;50.126;8.710;2023-10-09T13:51:59;13.83;;;4.23;;
67156;SDS011;54086;50.126;8.710;2023-10-09T13:54:31;13.88;;;4.97;;
67156;SDS011;54086;50.126;8.710;2023-10-09T13:56:57;13.00;;;4.83;;
67156;SDS011;54086;50.126;8.710;2023-10-09T13:59:22;12.60;;;5.50;;
67156;SDS011;54086;50.126;8.710;2023-10-09T14:01:50;10.68;;;4.68;;
67156;SDS011;54086;50.126;8.710;2023-10-09T14:04:19;11.20;;;4.20;;
67156;SDS011;54086;50.126;8.710;2023-10-09T14:06:45;11.13;;;4.38;;
67156;SDS011;54086;50.126;8.710;2023-10-09T14:09:12;9.80;;;3.40;;
67156;SDS011;54086;50.126;8.710;2023-10-09T14:11:55;10.63;;;3.73;;
67156;SDS011;54086;50.126;8.710;2023-10-09T14:17:08;10.88;;;4.00;;
67156;SDS011;54086;50.126;8.710;2023-10-09T14:19:40;13.77;;;4.00;;
67156;SDS011;54086;50.126;8.710;2023-10-09T14:22:11;12.23;;;4.35;;
67156;SDS011;54086;50.126;8.710;2023-10-09T14:24:41;9.50;;;3.50;;
67156;SDS011;54086;50.126;8.710;2023-10-09T14:27:15;14.95;;;4.15;;
67156;SDS011;54086;50.126;8.710;2023-10-09T14:29:47;13.82;;;3.75;;
67156;SDS011;54086;50.126;8.710;2023-10-09T14:32:13;11.38;;;3.70;;
67156;SDS011;54086;50.126;8.710;2023-10-09T14:34:40;13.52;;;4.28;;
67156;SDS011;54086;50.126;8.710;2023-10-09T14:37:15;10.93;;;4.47;;
67156;SDS011;54086;50.126;8.710;2023-10-09T14:39:44;12.43;;;4.15;;
67156;SDS011;54086;50.126;8.710;2023-10-09T14:42:16;10.57;;;4.50;;
67156;SDS011;54086;50.126;8.710;2023-10-09T14:44:42;13.05;;;4.20;;
67156;SDS011;54086;50.126;8.710;2023-10-09T14:47:12;14.00;;;5.55;;
67156;SDS011;54086;50.126;8.710;2023-10-09T14:49:39;13.53;;;5.13;;
67156;SDS011;54086;50.126;8.710;2023-10-09T14:52:12;13.35;;;4.85;;
67156;SDS011;54086;50.126;8.710;2023-10-09T14:54:41;13.13;;;4.82;;
67156;SDS011;54086;50.126;8.710;2023-10-09T14:57:11;12.52;;;4.40;;
67156;SDS011;54086;50.126;8.710;2023-10-09T14:59:37;13.35;;;4.70;;
67156;SDS011;54086;50.126;8.710;2023-10-09T15:02:03;12.30;;;4.30;;
67156;SDS011;54086;50.126;8.710;2023-10-09T15:04:30;14.02;;;4.47;;
67156;SDS011;54086;50.126;8.710;2023-10-09T15:06:56;12.63;;;4.90;;
67156;SDS011;54086;50.126;8.710;2023-10-09T15:09:22;11.25;;;3.92;;
67156;SDS011;54086;50.126;8.710;2023-10-09T15:11:48;13.63;;;5.23;;
67156;SDS011;54086;50.126;8.710;2023-10-09T15:14:15;14.75;;;5.57;;
67156;SDS011;54086;50.126;8.710;2023-10-09T15:16:41;16.75;;;5.45;;
67156;SDS011;54086;50.126;8.710;2023-10-09T15:19:08;10.90;;;4.80;;
67156;SDS011;54086;50.126;8.710;2023-10-09T15:21:35;13.37;;;5.00;;
67156;SDS011;54086;50.126;8.710;2023-10-09T15:24:09;13.30;;;5.10;;
67156;SDS011;54086;50.126;8.710;2023-10-09T15:26:50;13.88;;;5.20;;
67156;SDS011;54086;50.126;8.710;2023-10-09T15:29:22;11.63;;;5.07;;
67156;SDS011;54086;50.126;8.710;2023-10-09T15:31:56;13.35;;;5.45;;
67156;SDS011;54086;50.126;8.710;2023-10-09T15:34:30;16.00;;;6.20;;
67156;SDS011;54086;50.126;8.710;2023-10-09T15:36:56;16.15;;;6.32;;
67156;SDS011;54086;50.126;8.710;2023-10-09T15:39:22;17.17;;;5.50;;
67156;SDS011;54086;50.126;8.710;2023-10-09T15:41:49;13.40;;;5.45;;
67156;SDS011;54086;50.126;8.710;2023-10-09T15:44:15;13.93;;;6.03;;
67156;SDS011;54086;50.126;8.710;2023-10-09T15:46:41;14.68;;;6.88;;